M I D A S
Marine Information and Data Acquisition System
Tripno 1118 of the Zeeleeuw from 2006-06-29 07:09:02 to 2006-06-29 13:32:01
Back to CruiseResearch ActivitiesStationsMapUnderway DataData graphs

EquipmentUnitsComment
TimeDGPSUTC
LatitudeDGPSDM.mWGS84
LongitudeDGPSDM.mWGS84
TemperatureSBE03/SBE38deg celciusITS90
ConductivitySBE21S/mITS90
SalinitySBE21 Practical Salinity Units
ChlorophylAChelsea fluorimeterg/lCalibrated in Aceton
Missing or incorrect values are displayed as -999
Sea surface data collected by the RV Zeeleeuw from 2006-06-29 07:06:38 to 2006-06-29 13:42:49
Time Latitude Longitude Temperature Conductivity Salinity ChlorophylA
2006-06-29 07:07:43 51°13.616 2°56.048 22.0338 0.007057 0.04031 5.657247
2006-06-29 07:08:44 51°13.642 2°55.961 22.0524 0.007057 0.04031 5.657247
2006-06-29 07:09:43 51°13.678 2°55.842 22.0665 0.007057 0.040309 5.657247
2006-06-29 07:10:42 51°13.694 2°55.766 22.0751 0.007057 0.040308 5.623537
2006-06-29 07:11:44 51°13.703 2°55.771 22.0421 0.007057 0.040308 5.657247
2006-06-29 07:12:43 51°13.699 2°55.76 22.1018 0.007057 0.040308 5.623537
2006-06-29 07:13:44 51°13.734 2°55.73 22.0654 0.007057 0.040307 5.657247
2006-06-29 07:14:44 51°13.832 2°55.628 21.9341 0.007057 0.040306 5.657247
2006-06-29 07:15:44 51°13.959 2°55.537 22.0002 0.007057 0.040306 5.623537
2006-06-29 07:16:44 51°14.095 2°55.442 22.0501 0.007057 0.040306 5.623537
2006-06-29 07:17:44 51°14.226 2°55.313 22.0641 0.007057 0.040307 5.657247
2006-06-29 07:18:43 51°14.351 2°55.094 22.0186 0.007057 0.040307 5.623537
2006-06-29 07:19:44 51°14.456 2°54.802 21.9714 0.007057 0.04031 5.657247
2006-06-29 07:20:44 51°14.45 2°54.444 21.9968 0.007057 0.040313 5.623537
2006-06-29 07:21:44 51°14.354 2°54.114 21.9677 0.007057 0.040318 5.623537
2006-06-29 07:22:44 51°14.225 2°53.809 21.9438 0.007057 0.040323 5.623537
2006-06-29 07:23:43 51°14.104 2°53.503 21.9141 0.007057 0.040327 5.657247
2006-06-29 07:24:44 51°13.981 2°53.182 21.9429 0.007057 0.040331 5.623537
2006-06-29 07:25:43 51°13.859 2°52.873 21.8838 0.007057 0.040334 5.623537
2006-06-29 07:26:42 51°13.73 2°52.574 21.8874 0.007057 0.040337 5.623537
2006-06-29 07:27:44 51°13.623 2°52.231 21.9669 0.007057 0.040339 5.623537
2006-06-29 07:28:44 51°13.518 2°51.9 21.996 0.007057 0.040341 5.623537
2006-06-29 07:29:44 51°13.401 2°51.578 21.9879 0.007057 0.040344 5.623537
2006-06-29 07:30:43 51°13.293 2°51.257 22.0081 0.007057 0.040347 5.623537
2006-06-29 07:31:44 51°13.168 2°50.937 22.0089 0.007057 0.040348 5.623537
2006-06-29 07:32:43 51°13.059 2°50.616 21.9939 0.007057 0.04035 5.623537
2006-06-29 07:33:44 51°12.933 2°50.296 21.9742 0.007057 0.040353 5.623537
2006-06-29 07:34:44 51°12.822 2°49.975 22.0345 0.007057 0.040354 5.623537
2006-06-29 07:35:44 51°12.711 2°49.648 22.0457 0.007057 0.040356 5.623537
2006-06-29 07:36:44 51°12.598 2°49.322 22.0601 0.007057 0.040357 5.589828
2006-06-29 07:37:43 51°12.484 2°49.004 22.0774 0.007057 0.04036 5.623537
2006-06-29 07:38:44 51°12.362 2°48.679 22.0982 0.007057 0.040363 5.623537
2006-06-29 07:39:44 51°12.248 2°48.356 22.1104 0.007057 0.040365 5.589828
2006-06-29 07:40:44 51°12.132 2°48.034 22.1152 0.007057 0.040368 5.623537
2006-06-29 07:41:44 51°12.016 2°47.71 22.145 0.007057 0.04037 5.589828
2006-06-29 07:42:44 51°11.899 2°47.382 22.135 0.007057 0.040371 5.623537
2006-06-29 07:43:44 51°11.785 2°47.052 22.1783 0.007057 0.040374 5.623537
2006-06-29 07:44:44 51°11.661 2°46.733 22.1416 0.007057 0.040376 5.623537
2006-06-29 07:45:43 51°11.552 2°46.407 22.1498 0.007057 0.040377 5.623537
2006-06-29 07:46:44 51°11.453 2°46.056 22.172 0.007057 0.040379 5.623537
2006-06-29 07:47:44 51°11.352 2°45.717 22.1996 0.007057 0.040381 5.589828
2006-06-29 07:48:44 51°11.276 2°45.364 22.1864 0.007057 0.040383 5.623537
2006-06-29 07:49:43 51°11.21 2°45.007 22.2417 0.007057 0.040385 5.589828
2006-06-29 07:50:44 51°11.138 2°44.641 22.2418 0.007057 0.040388 5.623537
2006-06-29 07:51:44 51°11.064 2°44.28 22.2495 0.007057 0.040391 5.589828
2006-06-29 07:52:44 51°10.992 2°43.92 22.269 0.007057 0.040395 5.623537
2006-06-29 07:53:44 51°10.92 2°43.564 22.2676 0.007057 0.040398 5.589828
2006-06-29 07:54:44 51°10.837 2°43.217 22.2804 0.007057 0.040402 5.589828
2006-06-29 07:55:44 51°10.755 2°42.868 22.2872 0.007057 0.040407 5.589828
2006-06-29 07:56:44 51°10.673 2°42.518 22.304 0.007057 0.040411 5.589828
2006-06-29 07:57:44 51°10.595 2°42.165 22.3327 0.007057 0.040415 5.589828
2006-06-29 07:58:43 51°10.513 2°41.822 22.3279 0.007057 0.040418 5.623537
2006-06-29 07:59:44 51°10.431 2°41.465 22.3624 0.007057 0.040421 5.589828
2006-06-29 08:00:44 51°10.347 2°41.117 22.3907 0.007057 0.040424 5.623537
2006-06-29 08:01:44 51°10.267 2°40.766 22.4173 0.007057 0.040427 5.623537
2006-06-29 08:02:44 51°10.191 2°40.414 22.3762 0.007057 0.040429 5.623537
2006-06-29 08:03:44 51°10.104 2°40.069 22.3836 0.007057 0.040432 5.589828
2006-06-29 08:04:43 51°10.044 2°39.718 22.4062 0.007057 0.040434 5.589828
2006-06-29 08:05:44 51°9.98 2°39.355 22.4614 0.007057 0.040438 5.623537
2006-06-29 08:06:44 51°9.918 2°38.998 22.4634 0.007057 0.040442 5.589828
2006-06-29 08:07:44 51°9.859 2°38.637 22.4926 0.007057 0.040446 5.589828
2006-06-29 08:08:44 51°9.802 2°38.274 22.5111 0.007057 0.040449 5.589828
2006-06-29 08:09:43 51°9.752 2°37.914 22.5026 0.007057 0.040452 5.589828
2006-06-29 08:10:44 51°9.71 2°37.538 22.5081 0.007057 0.040455 5.623537
2006-06-29 08:11:44 51°9.67 2°37.167 22.5347 0.007057 0.040457 5.589828
2006-06-29 08:12:44 51°9.63 2°36.795 22.5528 0.007057 0.040459 5.623537
2006-06-29 08:13:44 51°9.609 2°36.42 22.5478 0.007057 0.040461 5.589828
2006-06-29 08:14:44 51°9.623 2°36.045 22.5717 0.007057 0.040463 5.623537
2006-06-29 08:15:44 51°9.705 2°35.702 22.5763 0.007057 0.040464 5.556118
2006-06-29 08:16:44 51°9.872 2°35.472 22.5806 0.007057 0.040467 5.589828
2006-06-29 08:17:44 51°10.071 2°35.375 22.5935 0.007057 0.04047 5.623537
2006-06-29 08:18:44 51°10.257 2°35.464 17.3706 4.195622 29.71123 7.275298
2006-06-29 08:19:44 51°10.434 2°35.602 17.0197 4.48031 34.449326 6.196597
2006-06-29 08:20:44 51°10.608 2°35.742 16.9012 4.421904 34.227668 5.960631
2006-06-29 08:21:44 51°10.788 2°35.863 16.9073 4.44974 34.543739 6.02805
2006-06-29 08:22:44 51°10.955 2°36.02 16.8671 4.44605 34.53119 6.398853
2006-06-29 08:23:44 51°11.122 2°36.179 16.8689 4.439197 34.496157 6.668529
2006-06-29 08:24:44 51°11.285 2°36.346 16.8611 4.43983 34.506703 6.870785
2006-06-29 08:25:44 51°11.453 2°36.501 16.8474 4.439724 34.520291 7.17417
2006-06-29 08:26:44 51°11.617 2°36.661 16.8365 4.433609 34.475886 7.342717
2006-06-29 08:27:43 51°11.781 2°36.815 16.8429 4.423066 34.400474 7.612392
2006-06-29 08:28:43 51°11.942 2°36.983 16.8578 4.421801 34.379398 7.882067
2006-06-29 08:29:44 51°12.109 2°37.149 16.8774 4.444785 34.566246 8.219161
2006-06-29 08:30:44 51°12.274 2°37.308 16.8934 4.437299 34.487836 8.589965
2006-06-29 08:31:44 51°12.438 2°37.474 16.8854 4.449635 34.588249 9.028187
2006-06-29 08:32:44 51°12.605 2°37.633 16.8741 4.451111 34.60489 9.39899
2006-06-29 08:33:44 51°12.771 2°37.796 16.8568 4.450479 34.61203 9.803503
2006-06-29 08:34:44 51°12.939 2°37.95 16.8378 4.448792 34.609993 10.174306
2006-06-29 08:35:44 51°13.108 2°38.103 16.8339 4.446367 34.605956 10.578819
2006-06-29 08:36:44 51°13.274 2°38.264 16.9232 4.445418 34.588194 10.983332
2006-06-29 08:37:44 51°13.445 2°38.411 16.9828 4.444363 34.507075 11.354136
2006-06-29 08:38:44 51°13.612 2°38.565 17.0366 4.444573 34.459875 11.724939
2006-06-29 08:39:43 51°13.776 2°38.715 17.0947 4.443939 34.404887 12.028324
2006-06-29 08:40:44 51°13.954 2°38.843 17.1937 4.440881 34.327216 12.297999
2006-06-29 08:41:44 51°14.152 2°38.848 17.2342 4.437611 34.21822 12.533965
2006-06-29 08:42:44 51°14.353 2°38.804 17.2369 4.440035 34.208817 12.736221
2006-06-29 08:43:44 51°14.554 2°38.84 17.2693 4.436451 34.18903 13.005896
2006-06-29 08:44:43 51°14.746 2°38.896 17.3505 4.431073 34.101336 13.174443
2006-06-29 08:45:43 51°14.941 2°38.963 17.2895 4.430334 34.043959 13.309281
2006-06-29 08:46:44 51°15.137 2°39.039 17.2859 4.44362 34.212521 13.477828
2006-06-29 08:47:44 51°15.328 2°39.127 17.2437 4.448364 34.258366 13.646375
2006-06-29 08:48:44 51°15.519 2°39.211 17.2521 4.451211 34.305843 13.747503
2006-06-29 08:49:44 51°15.708 2°39.302 17.272 4.450579 34.292325 13.814922
2006-06-29 08:50:43 51°15.894 2°39.389 17.2949 4.450789 34.27432 13.91605
2006-06-29 08:51:44 51°16.087 2°39.475 17.3099 4.452792 34.273019 13.949759
2006-06-29 08:52:44 51°16.278 2°39.558 17.3101 4.454901 34.283764 14.050888
2006-06-29 08:53:44 51°16.467 2°39.639 17.3186 4.450789 34.247722 14.152016
2006-06-29 08:54:44 51°16.658 2°39.714 17.3151 4.44383 34.17977 14.185725
2006-06-29 08:55:43 51°16.845 2°39.788 17.3047 4.417999 33.96545 14.219435
2006-06-29 08:56:43 51°17.031 2°39.876 17.3038 4.401974 33.832507 14.185725
2006-06-29 08:57:43 51°17.211 2°39.987 17.3011 4.385843 33.695665 14.185725
2006-06-29 08:58:43 51°17.389 2°40.101 17.3148 4.375195 33.601746 14.152016
2006-06-29 08:59:43 51°17.562 2°40.228 17.3153 4.375089 33.592961 14.084597
2006-06-29 09:00:43 51°17.738 2°40.348 17.3141 4.372243 33.570333 14.050888
2006-06-29 09:01:43 51°17.911 2°40.472 17.2922 4.372137 33.57185 14.084597
2006-06-29 09:02:43 51°18.085 2°40.596 17.2909 4.368342 33.552573 14.118306
2006-06-29 09:03:44 51°18.262 2°40.723 17.2835 4.357589 33.465652 14.219435
2006-06-29 09:04:43 51°18.431 2°40.844 17.2749 4.353688 33.432758 14.286853
2006-06-29 09:05:44 51°18.605 2°40.971 17.2479 4.346624 33.381752 14.387982
2006-06-29 09:06:44 51°18.776 2°41.089 17.2416 4.335977 33.313192 14.48911
2006-06-29 09:07:43 51°18.945 2°41.214 17.2567 4.32923 33.262457 14.556529
2006-06-29 09:08:44 51°19.119 2°41.345 17.2569 4.327016 33.225429 14.623947
2006-06-29 09:09:43 51°19.29 2°41.468 17.2564 4.325013 33.211835 14.691366
2006-06-29 09:10:44 51°19.466 2°41.595 17.285 4.320058 33.164514 14.758785
2006-06-29 09:11:44 51°19.639 2°41.724 17.2635 4.318898 33.139602 14.826204
2006-06-29 09:12:44 51°19.81 2°41.852 17.2594 4.317844 33.143123 14.893623
2006-06-29 09:13:44 51°19.982 2°41.976 17.2559 4.316684 33.133173 14.961042
2006-06-29 09:14:44 51°20.137 2°42.128 17.2455 4.315736 33.131615 15.02846
2006-06-29 09:15:44 51°20.136 2°42.402 17.2431 4.313733 33.123402 15.06217
2006-06-29 09:16:44 51°20.018 2°42.643 17.2182 4.31173 33.109203 15.163298
2006-06-29 09:17:44 51°19.805 2°42.706 17.2305 4.307302 33.084356 15.230717
2006-06-29 09:18:44 51°19.577 2°42.642 17.226 4.306986 33.078054 15.264426
2006-06-29 09:19:44 51°19.347 2°42.57 17.2166 4.304772 33.062637 15.298136
2006-06-29 09:20:44 51°19.119 2°42.487 17.204 4.311203 33.128025 15.365554
2006-06-29 09:21:44 51°18.892 2°42.415 17.2186 4.314577 33.159999 15.399264
2006-06-29 09:22:44 51°18.665 2°42.335 17.2192 4.310043 33.113275 15.466683
2006-06-29 09:23:44 51°18.438 2°42.259 17.2312 4.318688 33.180919 15.500392
2006-06-29 09:24:43 51°18.215 2°42.183 17.3049 4.318055 33.156907 15.60152
2006-06-29 09:25:44 51°17.985 2°42.108 17.3105 4.313732 33.073812 15.60152
2006-06-29 09:26:44 51°17.757 2°42.04 17.3038 4.317316 33.100351 15.736358
2006-06-29 09:27:44 51°17.53 2°41.97 17.305 4.321744 33.143677 15.803777
2006-06-29 09:28:44 51°17.304 2°41.893 17.3165 4.325223 33.169913 15.837486
2006-06-29 09:29:44 51°17.075 2°41.821 17.3152 4.333024 33.229609 15.972324
2006-06-29 09:30:44 51°16.848 2°41.754 17.3222 4.342723 33.31458 16.073452
2006-06-29 09:31:44 51°16.621 2°41.683 17.3267 4.354425 33.408345 16.140871
2006-06-29 09:32:44 51°16.395 2°41.621 17.3342 4.358115 33.434578 16.241999
2006-06-29 09:33:44 51°16.17 2°41.562 17.3251 4.368342 33.52414 16.309418
2006-06-29 09:34:44 51°15.945 2°41.504 17.3366 4.383102 33.659962 16.309418
2006-06-29 09:35:44 51°15.721 2°41.448 17.3648 4.397334 33.757903 16.309418
2006-06-29 09:36:43 51°15.499 2°41.417 17.378 4.412621 33.870925 16.444255
2006-06-29 09:37:43 51°15.273 2°41.388 17.381 4.421161 33.933284 16.511674
2006-06-29 09:38:44 51°15.042 2°41.396 17.4091 4.422321 33.939578 16.545383
2006-06-29 09:39:44 51°14.815 2°41.39 17.4219 4.418736 33.886834 16.579093
2006-06-29 09:40:44 51°14.592 2°41.418 17.4763 4.412199 33.813716 16.612802
2006-06-29 09:41:44 51°14.371 2°41.471 17.54 4.402287 33.689997 16.579093
2006-06-29 09:42:44 51°14.176 2°41.603 17.565 4.38837 33.517945 16.579093
2006-06-29 09:43:44 51°14.093 2°41.864 17.5868 4.386788 33.496633 16.579093
2006-06-29 09:44:44 51°14.132 2°42.14 17.6802 4.38257 33.418129 16.612802
2006-06-29 09:45:44 51°14.181 2°42.418 17.6903 4.37656 33.305552 16.646512
2006-06-29 09:46:44 51°14.231 2°42.696 17.6849 4.373924 33.281341 16.74764
2006-06-29 09:47:44 51°14.279 2°42.976 17.6835 4.374557 33.287912 16.781349
2006-06-29 09:48:44 51°14.326 2°43.257 17.6736 4.373397 33.278044 16.815059
2006-06-29 09:49:44 51°14.38 2°43.536 17.6618 4.371394 33.273468 16.916187
2006-06-29 09:50:44 51°14.438 2°43.812 17.649 4.368864 33.256088 16.949896
2006-06-29 09:51:44 51°14.488 2°44.091 17.7025 4.354737 33.134691 17.051024
2006-06-29 09:52:44 51°14.538 2°44.37 17.6765 4.338501 32.967204 17.118443
2006-06-29 09:53:44 51°14.59 2°44.649 17.6677 4.333968 32.950441 17.152153
2006-06-29 09:54:44 51°14.639 2°44.931 17.6351 4.327748 32.90816 17.185862
2006-06-29 09:55:44 51°14.69 2°45.216 17.6159 4.326589 32.921812 17.253281
2006-06-29 09:56:44 51°14.739 2°45.501 17.6108 4.323216 32.907234 17.28699
2006-06-29 09:57:43 51°14.795 2°45.779 17.6187 4.31299 32.818497 17.354409
2006-06-29 09:58:44 51°14.842 2°46.069 17.6235 4.307613 32.768099 17.388118
2006-06-29 09:59:44 51°14.895 2°46.35 17.6537 4.300233 32.699538 17.455537
2006-06-29 10:00:44 51°14.941 2°46.636 17.6593 4.291378 32.598694 17.455537
2006-06-29 10:01:43 51°14.989 2°46.915 17.6788 4.285685 32.549807 17.489247
2006-06-29 10:02:44 51°15.037 2°47.205 17.6764 4.27683 32.45384 17.556665
2006-06-29 10:03:44 51°15.087 2°47.494 17.6787 4.278516 32.478562 17.590375
2006-06-29 10:04:44 51°15.142 2°47.777 17.7138 4.276724 32.459313 17.624084
2006-06-29 10:05:43 51°15.185 2°48.062 17.7453 4.271137 32.381924 17.624084
2006-06-29 10:06:44 51°15.229 2°48.357 17.7673 4.263651 32.289222 17.657794
2006-06-29 10:07:44 51°15.275 2°48.649 17.7563 4.25838 32.237191 17.725212
2006-06-29 10:08:44 51°15.321 2°48.935 17.8274 4.256167 32.223063 17.792631
2006-06-29 10:09:44 51°15.365 2°49.222 17.8186 4.239194 32.02437 17.826341
2006-06-29 10:10:44 51°15.411 2°49.51 17.8025 4.236875 32.017885 17.86005
2006-06-29 10:11:44 51°15.454 2°49.798 17.811 4.231604 31.977966 17.961178
2006-06-29 10:12:44 51°15.5 2°50.079 17.8438 4.218428 31.857213 17.961178
2006-06-29 10:13:44 51°15.542 2°50.358 17.8506 4.197134 31.653636 18.028597
2006-06-29 10:14:44 51°15.589 2°50.635 17.864 4.188069 31.572878 18.062306
2006-06-29 10:15:44 51°15.642 2°50.91 17.8575 4.179531 31.503304 18.096016
2006-06-29 10:16:44 51°15.697 2°51.186 17.8591 4.183536 31.533077 18.129725
2006-06-29 10:17:44 51°15.745 2°51.466 17.8338 4.173944 31.460234 18.298272
2006-06-29 10:18:44 51°15.801 2°51.744 17.816 4.175315 31.486279 18.365691
2006-06-29 10:19:44 51°15.855 2°52.023 17.8401 4.177739 31.51171 18.3994
2006-06-29 10:20:44 51°15.908 2°52.301 17.844 4.170782 31.439222 18.601657
2006-06-29 10:21:44 51°15.96 2°52.579 17.8785 4.167303 31.401061 18.567947
2006-06-29 10:22:44 51°16.009 2°52.856 17.8886 4.161084 31.327127 18.635366
2006-06-29 10:23:44 51°16.058 2°53.133 17.8427 4.142954 31.177143 18.97246
2006-06-29 10:24:44 51°16.101 2°53.391 17.7982 4.13273 31.121686 19.275845
2006-06-29 10:25:44 51°16.124 2°53.561 17.768 4.127145 31.110655 19.646648
2006-06-29 10:26:44 51°16.146 2°53.702 17.7918 4.125775 31.112955 19.848905
2006-06-29 10:27:44 51°16.157 2°53.815 17.8085 4.12451 31.085747 19.612939
2006-06-29 10:28:45 51°16.163 2°53.917 17.8333 4.125247 31.077045 19.54552
2006-06-29 10:29:44 51°16.169 2°54.007 17.8347 4.12746 31.079641 19.376973
2006-06-29 10:30:44 51°16.175 2°54.097 17.8214 4.124298 31.054745 19.511811
2006-06-29 10:31:44 51°16.18 2°54.188 17.8007 4.120293 31.029378 19.680358
2006-06-29 10:32:43 51°16.189 2°54.275 17.7791 4.116499 31.013481 19.882614
2006-06-29 10:33:44 51°16.196 2°54.368 17.7563 4.113337 31.007296 20.185999
2006-06-29 10:34:44 51°16.202 2°54.459 17.7468 4.111546 31.005461 20.65793
2006-06-29 10:35:44 51°16.209 2°54.548 17.7536 4.110386 30.998469 21.028734
2006-06-29 10:36:44 51°16.215 2°54.635 17.7571 4.109543 30.988625 21.028734
2006-06-29 10:37:43 51°16.222 2°54.717 17.78 4.109227 30.98156 20.927606
2006-06-29 10:38:44 51°16.245 2°54.783 17.8001 4.110597 30.975458 20.455674
2006-06-29 10:39:44 51°16.292 2°54.775 17.8158 4.111861 30.97233 20.253418
2006-06-29 10:40:44 51°16.309 2°54.657 17.8428 4.113337 30.972624 20.253418
2006-06-29 10:41:44 51°16.272 2°54.537 17.8527 4.116498 30.976084 20.219708
2006-06-29 10:42:43 51°16.222 2°54.457 17.8419 4.11692 30.978522 20.219708
2006-06-29 10:43:44 51°16.168 2°54.391 17.8365 4.116182 30.980572 20.287127
2006-06-29 10:44:43 51°16.131 2°54.276 17.8407 4.116604 30.982461 20.556802
2006-06-29 10:45:44 51°16.158 2°54.173 17.8355 4.116815 30.983681 21.23099
2006-06-29 10:46:44 51°16.182 2°54.18 17.8447 4.116498 30.987622 20.826477
2006-06-29 10:47:44 51°16.219 2°54.242 17.8492 4.12472 31.047269 20.017452
2006-06-29 10:48:44 51°16.227 2°54.259 17.8304 4.125563 31.055448 19.916324
2006-06-29 10:49:43 51°16.221 2°54.255 17.8267 4.125142 31.060723 19.950033
2006-06-29 10:50:44 51°16.215 2°54.249 17.824 4.119977 31.023971 19.916324
2006-06-29 10:51:44 51°16.209 2°54.244 17.8243 4.125985 31.074418 19.882614
2006-06-29 10:52:44 51°16.204 2°54.242 17.8201 4.126301 31.079279 19.882614
2006-06-29 10:53:44 51°16.2 2°54.239 17.8164 4.127039 31.085476 19.815195
2006-06-29 10:54:44 51°16.202 2°54.227 17.8153 4.127882 31.095317 19.848905
2006-06-29 10:55:44 51°16.207 2°54.208 17.8216 4.130306 31.11292 19.848905
2006-06-29 10:56:44 51°16.212 2°54.188 17.8244 4.132414 31.129523 19.882614
2006-06-29 10:57:44 51°16.217 2°54.172 17.8194 4.135787 31.157305 19.882614
2006-06-29 10:58:43 51°16.221 2°54.157 17.8172 4.136631 31.167154 19.916324
2006-06-29 10:59:44 51°16.226 2°54.144 17.814 4.137052 31.173463 19.983742
2006-06-29 11:00:44 51°16.23 2°54.132 17.8139 4.138633 31.186749 20.017452
2006-06-29 11:01:44 51°16.234 2°54.119 17.8213 4.139687 31.195053 19.983742
2006-06-29 11:02:44 51°16.24 2°54.104 17.8147 4.141585 31.20989 19.950033
2006-06-29 11:03:44 51°16.247 2°54.084 17.8246 4.142639 31.217641 19.916324
2006-06-29 11:04:45 51°16.254 2°54.062 17.8471 4.14422 31.22594 19.916324
2006-06-29 11:05:44 51°16.261 2°54.044 17.869 4.147065 31.232676 19.815195
2006-06-29 11:06:44 51°16.265 2°54.031 17.8767 4.148119 31.223812 19.781486
2006-06-29 11:07:44 51°16.269 2°54.022 17.8764 4.147592 31.214962 19.781486
2006-06-29 11:08:44 51°16.272 2°54.015 17.8681 4.146538 31.20888 19.882614
2006-06-29 11:09:44 51°16.276 2°54.008 17.8642 4.145273 31.202134 20.017452
2006-06-29 11:10:44 51°16.311 2°54 17.8542 4.143376 31.191183 20.084871
2006-06-29 11:11:44 51°16.407 2°53.946 17.8492 4.141057 31.176689 20.253418
2006-06-29 11:12:44 51°16.509 2°53.835 17.8462 4.13663 31.147255 20.388255
2006-06-29 11:13:44 51°16.595 2°53.679 17.8454 4.136525 31.14637 20.354546
2006-06-29 11:14:44 51°16.673 2°53.501 17.8295 4.142217 31.192508 20.152289
2006-06-29 11:15:44 51°16.756 2°53.33 17.8143 4.146222 31.239444 20.11858
2006-06-29 11:16:44 51°16.838 2°53.157 17.7966 4.149174 31.27701 20.084871
2006-06-29 11:17:44 51°16.92 2°52.99 17.7882 4.149701 31.29144 20.287127
2006-06-29 11:18:44 51°17.004 2°52.826 17.783 4.150228 31.300876 20.455674
2006-06-29 11:19:44 51°17.094 2°52.676 17.7828 4.151809 31.320296 20.388255
2006-06-29 11:20:44 51°17.19 2°52.543 17.792 4.152336 31.323617 20.185999
2006-06-29 11:21:44 51°17.289 2°52.412 17.8088 4.150439 31.298202 20.185999
2006-06-29 11:22:44 51°17.386 2°52.278 17.8284 4.154128 31.316441 20.11858
2006-06-29 11:23:44 51°17.484 2°52.148 17.8233 4.156236 31.322492 20.152289
2006-06-29 11:24:44 51°17.582 2°52.014 17.8139 4.149912 31.273776 20.489383
2006-06-29 11:25:43 51°17.679 2°51.886 17.7963 4.145063 31.23857 20.69164
2006-06-29 11:26:44 51°17.78 2°51.752 17.76 4.14032 31.216438 20.69164
2006-06-29 11:27:43 51°17.876 2°51.619 17.7245 4.139161 31.233318 20.523093
2006-06-29 11:28:44 51°17.976 2°51.482 17.7173 4.140848 31.266412 20.354546
2006-06-29 11:29:44 51°18.079 2°51.356 17.6923 4.143167 31.295964 20.219708
2006-06-29 11:30:44 51°18.181 2°51.229 17.662 4.144748 31.329918 20.152289
2006-06-29 11:31:44 51°18.294 2°51.172 17.6286 4.1477 31.378839 19.983742
2006-06-29 11:32:44 51°18.396 2°51.232 17.6172 4.151179 31.428368 19.747777
2006-06-29 11:33:44 51°18.459 2°51.374 17.6062 4.154658 31.46729 19.612939
2006-06-29 11:34:45 51°18.516 2°51.549 17.6069 4.15666 31.492082 19.57923
2006-06-29 11:35:44 51°18.586 2°51.76 17.5936 4.15645 31.493674 19.57923
2006-06-29 11:36:44 51°18.658 2°51.985 17.5865 4.15529 31.491748 19.646648
2006-06-29 11:37:45 51°18.732 2°52.209 17.6016 4.152234 31.467594 19.646648
2006-06-29 11:38:44 51°18.803 2°52.429 17.6001 4.153393 31.470649 19.612939
2006-06-29 11:39:44 51°18.876 2°52.649 17.6093 4.151601 31.456066 19.646648
2006-06-29 11:40:44 51°18.945 2°52.872 17.6277 4.151601 31.445957 19.646648
2006-06-29 11:41:44 51°19.015 2°53.094 17.6522 4.149703 31.414224 19.646648
2006-06-29 11:42:44 51°19.083 2°53.315 17.6789 4.147911 31.377821 19.646648
2006-06-29 11:43:45 51°19.156 2°53.54 17.6872 4.145908 31.346394 19.680358
2006-06-29 11:44:45 51°19.227 2°53.762 17.6647 4.145486 31.34228 19.714067
2006-06-29 11:45:44 51°19.294 2°53.983 17.6537 4.142957 31.332115 19.781486
2006-06-29 11:46:44 51°19.363 2°54.205 17.6775 4.141587 31.325583 19.848905
2006-06-29 11:47:45 51°19.433 2°54.432 17.6969 4.14243 31.31539 19.815195
2006-06-29 11:48:45 51°19.501 2°54.657 17.7117 4.141586 31.293785 19.815195
2006-06-29 11:49:44 51°19.569 2°54.877 17.7126 4.142113 31.2843 19.815195
2006-06-29 11:50:45 51°19.639 2°55.108 17.6991 4.141797 31.28442 19.815195
2006-06-29 11:51:45 51°19.711 2°55.334 17.6842 4.139267 31.281485 20.051161
2006-06-29 11:52:45 51°19.781 2°55.563 17.6815 4.141165 31.304726 19.983742
2006-06-29 11:53:45 51°19.852 2°55.79 17.683 4.14243 31.31539 19.983742
2006-06-29 11:54:45 51°19.926 2°56.014 17.679 4.14243 31.310927 19.950033
2006-06-29 11:55:45 51°20.034 2°56.194 17.672 4.143062 31.322396 19.916324
2006-06-29 11:56:44 51°20.142 2°56.374 17.6557 4.145381 31.348653 20.017452
2006-06-29 11:57:45 51°20.262 2°56.547 17.6583 4.142851 31.330109 20.11858
2006-06-29 11:58:44 51°20.374 2°56.721 17.6514 4.150546 31.400616 20.287127
2006-06-29 11:59:45 51°20.492 2°56.897 17.6555 4.152549 31.423679 20.287127
2006-06-29 12:00:44 51°20.603 2°57.07 17.6605 4.156027 31.446873 20.152289
2006-06-29 12:01:44 51°20.717 2°57.248 17.6559 4.157819 31.455829 20.084871
2006-06-29 12:02:44 51°20.833 2°57.419 17.6604 4.157714 31.468402 20.11858
2006-06-29 12:03:45 51°20.833 2°57.652 17.6453 4.1633 31.507146 19.983742
2006-06-29 12:04:45 51°20.683 2°57.81 17.6354 4.162247 31.515667 20.051161
2006-06-29 12:05:45 51°20.508 2°57.892 17.6823 4.162773 31.508876 20.051161
2006-06-29 12:06:45 51°20.328 2°57.887 17.6659 4.15803 31.448079 20.152289
2006-06-29 12:07:44 51°20.16 2°57.798 17.6902 4.154446 31.422324 20.253418
2006-06-29 12:08:44 51°20.02 2°57.62 17.6968 4.153392 31.398324 20.185999
2006-06-29 12:09:44 51°19.919 2°57.391 17.7094 4.154129 31.402309 20.11858
2006-06-29 12:10:45 51°19.829 2°57.148 17.7346 4.153918 31.38544 20.152289
2006-06-29 12:11:44 51°19.756 2°56.902 17.7087 4.157397 31.406931 20.185999
2006-06-29 12:12:45 51°19.679 2°56.65 17.7092 4.15434 31.388993 20.152289
2006-06-29 12:13:45 51°19.62 2°56.391 17.6901 4.152127 31.372572 20.185999
2006-06-29 12:14:45 51°19.567 2°56.141 17.6742 4.15434 31.409121 20.320836
2006-06-29 12:15:45 51°19.512 2°55.903 17.6845 4.155395 31.425848 20.354546
2006-06-29 12:16:44 51°19.459 2°55.673 17.7151 4.157713 31.434769 20.287127
2006-06-29 12:17:44 51°19.407 2°55.442 17.6928 4.155078 31.396888 20.253418
2006-06-29 12:18:44 51°19.353 2°55.211 17.6933 4.147911 31.353786 20.421965
2006-06-29 12:19:44 51°19.303 2°54.98 17.6978 4.146435 31.33688 20.421965
2006-06-29 12:20:44 51°19.251 2°54.751 17.7055 4.143483 31.309774 20.421965
2006-06-29 12:21:44 51°19.202 2°54.522 17.7 4.144327 31.314092 20.455674
2006-06-29 12:22:44 51°19.149 2°54.293 17.7105 4.140427 31.280115 20.556802
2006-06-29 12:23:44 51°19.099 2°54.061 17.7122 4.142324 31.28886 20.455674
2006-06-29 12:24:45 51°19.047 2°53.827 17.7056 4.138213 31.256458 20.455674
2006-06-29 12:25:44 51°19.001 2°53.6 17.6714 4.138951 31.27158 20.489383
2006-06-29 12:26:45 51°18.952 2°53.367 17.6857 4.138846 31.286848 20.556802
2006-06-29 12:27:45 51°18.906 2°53.136 17.6815 4.142113 31.304358 20.388255
2006-06-29 12:28:45 51°18.859 2°52.909 17.6475 4.148016 31.365849 20.354546
2006-06-29 12:29:45 51°18.811 2°52.68 17.6581 4.148754 31.389972 20.253418
2006-06-29 12:30:45 51°18.765 2°52.449 17.6803 4.152865 31.413464 20.084871
2006-06-29 12:31:45 51°18.724 2°52.239 17.6901 4.160454 31.461806 19.950033
2006-06-29 12:32:44 51°18.689 2°52.067 17.662 4.168359 31.529067 19.983742
2006-06-29 12:33:45 51°18.654 2°51.899 17.6257 4.17089 31.571228 19.916324
2006-06-29 12:34:42 51°18.621 2°51.745 17.5895 4.167939 31.576146 19.916324
2006-06-29 12:35:44 51°18.584 2°51.579 17.5896 4.168045 31.600165 19.916324
2006-06-29 12:36:44 51°18.549 2°51.417 17.586 4.173631 31.649686 19.848905
2006-06-29 12:37:44 51°18.514 2°51.256 17.5872 4.175739 31.667524 19.815195
2006-06-29 12:38:45 51°18.489 2°51.112 17.5865 4.178058 31.683185 19.781486
2006-06-29 12:39:45 51°18.477 2°51.015 17.5883 4.17985 31.698347 19.747777
2006-06-29 12:40:45 51°18.462 2°50.993 17.5826 4.181748 31.71837 19.680358
2006-06-29 12:41:45 51°18.441 2°50.983 17.5627 4.182591 31.731177 19.747777
2006-06-29 12:42:45 51°18.423 2°50.969 17.5616 4.181959 31.738303 19.815195
2006-06-29 12:43:45 51°18.404 2°50.95 17.5574 4.182275 31.743251 19.815195
2006-06-29 12:44:43 51°18.388 2°50.93 17.562 4.18238 31.745847 19.848905
2006-06-29 12:45:45 51°18.376 2°50.898 17.5657 4.182802 31.748851 19.815195
2006-06-29 12:46:44 51°18.377 2°50.858 17.5778 4.183645 31.746909 19.815195
2006-06-29 12:47:44 51°18.382 2°50.818 17.5834 4.184383 31.747482 19.747777
2006-06-29 12:48:44 51°18.391 2°50.78 17.5828 4.185015 31.748297 19.747777
2006-06-29 12:49:45 51°18.402 2°50.742 17.5906 4.185964 31.754058 19.747777
2006-06-29 12:50:43 51°18.411 2°50.701 17.6105 4.187018 31.755605 19.747777
2006-06-29 12:51:45 51°18.422 2°50.66 17.6241 4.187861 31.74743 19.714067
2006-06-29 12:52:45 51°18.434 2°50.625 17.6178 4.188704 31.748896 19.714067
2006-06-29 12:53:45 51°18.447 2°50.595 17.602 4.188704 31.755698 19.714067
2006-06-29 12:54:45 51°18.46 2°50.565 17.5823 4.188915 31.768259 19.747777
2006-06-29 12:55:44 51°18.473 2°50.537 17.5724 4.18881 31.783263 19.747777
2006-06-29 12:56:44 51°18.484 2°50.508 17.555 4.189337 31.797956 19.781486
2006-06-29 12:57:44 51°18.496 2°50.48 17.5514 4.189654 31.811441 19.714067
2006-06-29 12:58:44 51°18.508 2°50.454 17.558 4.19134 31.825733 19.680358
2006-06-29 12:59:44 51°18.52 2°50.433 17.5647 4.192711 31.832221 19.680358
2006-06-29 13:00:45 51°18.533 2°50.418 17.559 4.19387 31.839768 19.714067
2006-06-29 13:01:44 51°18.546 2°50.405 17.553 4.193554 31.842213 19.714067
2006-06-29 13:02:44 51°18.564 2°50.39 17.5474 4.193343 31.844983 19.747777
2006-06-29 13:03:45 51°18.609 2°50.394 17.5362 4.192395 31.843209 19.781486
2006-06-29 13:04:44 51°18.652 2°50.516 17.5622 4.191341 31.839402 19.714067
2006-06-29 13:05:44 51°18.611 2°50.699 17.5895 4.191867 31.818247 19.680358
2006-06-29 13:06:44 51°18.482 2°50.884 17.5644 4.192921 31.821487 19.680358
2006-06-29 13:07:44 51°18.317 2°51.092 17.5613 4.193554 31.841644 19.747777
2006-06-29 13:08:45 51°18.148 2°51.313 17.6432 4.188494 31.780018 19.714067
2006-06-29 13:09:44 51°17.979 2°51.518 17.6908 4.18143 31.661392 19.714067
2006-06-29 13:10:45 51°17.8 2°51.719 17.6794 4.172049 31.561325 19.815195
2006-06-29 13:11:45 51°17.622 2°51.917 17.7219 4.162773 31.492029 20.017452
2006-06-29 13:12:44 51°17.434 2°52.077 17.7818 4.153286 31.368385 20.152289
2006-06-29 13:13:44 51°17.241 2°52.229 17.807 4.143377 31.244361 20.421965
2006-06-29 13:14:45 51°17.044 2°52.386 17.8192 4.137685 31.181545 20.489383
2006-06-29 13:15:44 51°16.851 2°52.531 17.8366 4.137685 31.170479 20.590512
2006-06-29 13:16:44 51°16.658 2°52.691 17.8598 4.14053 31.178898 20.556802
2006-06-29 13:17:44 51°16.466 2°52.853 17.8847 4.146222 31.207332 20.388255
2006-06-29 13:18:44 51°16.263 2°52.974 17.89 4.146959 31.199151 20.421965
2006-06-29 13:19:44 51°16.058 2°53.073 17.9037 4.146327 31.187216 20.455674
2006-06-29 13:20:44 51°15.854 2°53.182 17.9236 4.146432 31.179268 20.421965
2006-06-29 13:21:45 51°15.648 2°53.296 17.9485 4.146959 31.167689 20.523093
2006-06-29 13:22:44 51°15.45 2°53.358 17.9355 4.139159 31.084177 20.826477
2006-06-29 13:23:44 51°15.244 2°53.384 17.9424 4.13431 31.056753 21.23099
2006-06-29 13:24:44 51°15.054 2°53.531 17.9523 4.138421 31.07635 20.927606
2006-06-29 13:25:44 51°14.902 2°53.772 18.0394 4.134626 31.036898 21.096153
2006-06-29 13:26:44 51°14.753 2°54.02 17.9802 4.134203 30.979187 20.961315
2006-06-29 13:27:44 51°14.608 2°54.273 17.9612 4.125983 30.955814 21.129862
2006-06-29 13:28:44 51°14.508 2°54.579 17.98 4.119132 30.912708 21.635503
2006-06-29 13:29:44 51°14.417 2°54.879 18.0305 4.117129 30.875221 22.073725
2006-06-29 13:30:44 51°14.32 2°55.143 18.1266 4.117233 30.83201 22.882751
2006-06-29 13:31:44 51°14.232 2°55.312 18.4496 4.119551 30.75274 23.422101
2006-06-29 13:32:44 51°14.132 2°55.407 18.6591 4.075173 30.142689 22.849042
2006-06-29 13:33:44 51°14.032 2°55.48 18.7667 4.020577 29.595069 22.073725
2006-06-29 13:34:47 51°13.935 2°55.552 18.9983 3.911712 28.593547 21.635503
2006-06-29 13:35:48 51°13.849 2°55.615 19.128 3.786107 27.426557 21.669212
2006-06-29 13:36:48 51°13.777 2°55.679 19.3211 3.665685 26.423705 22.040016
2006-06-29 13:37:48 51°13.723 2°55.767 19.6134 3.342442 23.695387 21.80405
2006-06-29 13:38:48 51°13.678 2°55.865 19.6171 3.086192 21.578824 21.635503
2006-06-29 13:39:48 51°13.642 2°55.957 19.5266 3.118086 21.84127 21.433247
2006-06-29 13:40:49 51°13.617 2°56.038 19.3378 3.183669 22.40115 21.433247
2006-06-29 13:41:48 51°13.605 2°56.088 19.3213 3.229992 22.823021 21.534375
2006-06-29 13:42:48 51°13.601 2°56.096 19.3187 3.235888 22.893777 21.500665